createdAt,value
2018-01-27T00:00:52.470Z,96.34
2018-01-27T00:03:20.015Z,96.09
2018-01-27T00:05:47.610Z,95.72
2018-01-27T00:08:15.226Z,95.69
2018-01-27T00:10:42.769Z,95.55
2018-01-27T00:13:10.325Z,95.46
2018-01-27T00:15:38.151Z,95.65
2018-01-27T00:18:05.710Z,96.51
2018-01-27T00:20:33.257Z,97.08
2018-01-27T00:23:01.719Z,97.24
2018-01-27T00:25:29.310Z,96.22
2018-01-27T00:27:56.901Z,95.79
2018-01-27T00:30:24.458Z,96.37
2018-01-27T00:32:52.048Z,96.15
2018-01-27T00:35:19.606Z,96.43
2018-01-27T00:37:47.162Z,96.62
2018-01-27T00:40:14.705Z,95.83
2018-01-27T00:42:42.254Z,95.96
2018-01-27T00:45:09.850Z,96.33
2018-01-27T00:47:37.404Z,96.28
2018-01-27T00:50:04.990Z,95.86
2018-01-27T00:52:32.548Z,95.68
2018-01-27T00:55:00.134Z,95.36
2018-01-27T00:57:27.679Z,95.25
2018-01-27T00:59:55.271Z,95.64
2018-01-27T01:02:22.866Z,95.91
2018-01-27T01:04:50.409Z,95.94
2018-01-27T01:07:18.007Z,96.34
2018-01-27T01:09:45.570Z,96.87
2018-01-27T01:12:13.130Z,97.32
2018-01-27T01:14:40.702Z,97.42
2018-01-27T01:17:08.490Z,96.51
2018-01-27T01:19:36.379Z,96.58
2018-01-27T01:22:03.931Z,96.51
2018-01-27T01:24:31.490Z,96.52
2018-01-27T01:26:59.141Z,95.50
2018-01-27T01:29:26.682Z,95.22
2018-01-27T01:31:54.238Z,95.92
2018-01-27T01:34:22.534Z,96.52
2018-01-27T01:36:50.098Z,96.13
2018-01-27T01:39:17.772Z,95.91
2018-01-27T01:41:45.422Z,95.54
2018-01-27T01:44:18.761Z,95.63
2018-01-27T01:46:46.305Z,95.97
2018-01-27T01:49:24.749Z,96.13
2018-01-27T01:51:52.358Z,96.23
2018-01-27T01:54:19.905Z,96.75
2018-01-27T01:56:47.494Z,96.00
2018-01-27T01:59:15.041Z,95.68
2018-01-27T02:01:42.596Z,96.50
2018-01-27T02:04:10.150Z,96.38
2018-01-27T02:06:37.924Z,96.14
2018-01-27T02:09:05.475Z,96.02
2018-01-27T02:11:33.045Z,96.03
2018-01-27T02:14:01.410Z,96.01
2018-01-27T02:16:29.678Z,96.09
2018-01-27T02:18:58.067Z,96.48
2018-01-27T02:21:26.493Z,96.97
2018-01-27T02:23:54.039Z,96.04
2018-01-27T02:26:21.582Z,96.16
2018-01-27T02:28:49.241Z,96.89
2018-01-27T02:31:16.805Z,96.67
2018-01-27T02:33:44.466Z,97.58
2018-01-27T02:36:12.133Z,97.65
2018-01-27T02:38:39.692Z,97.70
2018-01-27T02:41:07.249Z,98.12
2018-01-27T02:43:34.823Z,98.29
2018-01-27T02:46:02.368Z,98.27
2018-01-27T02:48:29.911Z,96.90
2018-01-27T02:50:57.695Z,96.04
2018-01-27T02:53:26.025Z,95.53
2018-01-27T02:55:53.565Z,95.47
2018-01-27T02:58:21.119Z,95.44
2018-01-27T03:00:48.668Z,95.73
2018-01-27T03:03:16.319Z,95.68
2018-01-27T03:05:43.982Z,96.42
2018-01-27T03:08:11.641Z,96.67
2018-01-27T03:10:40.105Z,95.91
2018-01-27T03:13:09.294Z,95.70
2018-01-27T03:15:36.985Z,95.72
2018-01-27T03:18:04.549Z,95.67
2018-01-27T03:20:32.087Z,96.61
2018-01-27T03:22:59.635Z,96.12
2018-01-27T03:25:27.214Z,95.45
2018-01-27T03:27:54.766Z,95.74
2018-01-27T03:30:22.320Z,96.10
2018-01-27T03:32:50.634Z,96.54
2018-01-27T03:35:18.178Z,96.21
2018-01-27T03:37:45.726Z,96.10
2018-01-27T03:40:13.282Z,95.89
2018-01-27T03:42:40.840Z,96.14
2018-01-27T03:45:08.399Z,96.20
2018-01-27T03:47:36.098Z,96.23
2018-01-27T03:50:04.542Z,95.72
2018-01-27T03:52:32.115Z,95.37
2018-01-27T03:54:59.663Z,95.19
2018-01-27T03:57:27.258Z,96.26
2018-01-27T03:59:54.922Z,95.83
2018-01-27T04:02:22.583Z,96.51
2018-01-27T04:04:50.138Z,97.20
2018-01-27T04:07:17.717Z,96.84
2018-01-27T04:09:45.269Z,96.00
2018-01-27T04:12:13.734Z,95.84
2018-01-27T04:14:42.074Z,96.39
2018-01-27T04:17:09.681Z,95.88
2018-01-27T04:19:37.276Z,96.02
2018-01-27T04:22:04.829Z,96.20
2018-01-27T04:24:32.444Z,95.99
2018-01-27T04:27:00.905Z,95.42
2018-01-27T04:29:29.430Z,96.18
2018-01-27T04:31:57.969Z,96.41
2018-01-27T04:34:26.290Z,95.79
2018-01-27T04:36:54.634Z,96.24
2018-01-27T04:39:22.185Z,96.37
2018-01-27T04:41:50.562Z,96.08
2018-01-27T04:44:18.120Z,95.74
2018-01-27T04:46:45.678Z,95.12
2018-01-27T04:49:14.057Z,95.58
2018-01-27T04:51:42.390Z,96.10
2018-01-27T04:54:10.045Z,96.77
2018-01-27T04:56:38.382Z,96.34
2018-01-27T04:59:06.884Z,95.83
2018-01-27T05:01:35.345Z,96.23
2018-01-27T05:04:03.679Z,96.66
2018-01-27T05:06:32.016Z,96.01
2018-01-27T05:09:00.333Z,95.62
2018-01-27T05:11:27.922Z,95.73
2018-01-27T05:13:55.481Z,95.41
2018-01-27T05:16:24.033Z,95.78
2018-01-27T05:18:51.577Z,95.42
2018-01-27T05:21:19.893Z,95.82
2018-01-27T05:23:47.446Z,95.75
2018-01-27T05:26:15.097Z,95.40
2018-01-27T05:28:42.763Z,96.39
2018-01-27T05:31:11.249Z,96.42
2018-01-27T05:33:38.907Z,95.33
2018-01-27T05:36:07.218Z,95.25
2018-01-27T05:38:34.778Z,95.05
2018-01-27T05:41:02.333Z,95.19
2018-01-27T05:43:29.873Z,94.92
2018-01-27T05:45:57.421Z,95.17
2018-01-27T05:48:24.974Z,95.27
2018-01-27T05:50:52.545Z,95.34
2018-01-27T05:53:20.108Z,95.24
2018-01-27T05:55:47.658Z,96.06
2018-01-27T05:58:15.201Z,96.19
2018-01-27T06:00:42.758Z,95.98
2018-01-27T06:03:10.322Z,95.87
2018-01-27T06:05:37.882Z,95.41
2018-01-27T06:08:05.423Z,95.06
2018-01-27T06:10:32.978Z,95.61
2018-01-27T06:13:00.578Z,95.78
2018-01-27T06:15:28.113Z,96.26
2018-01-27T06:17:56.539Z,96.36
2018-01-27T06:20:24.094Z,96.22
2018-01-27T06:22:51.759Z,96.50
2018-01-27T06:25:19.311Z,95.98
2018-01-27T06:27:46.877Z,95.46
2018-01-27T06:30:14.422Z,95.43
2018-01-27T06:32:41.969Z,95.01
2018-01-27T06:35:09.558Z,95.81
2018-01-27T06:37:37.110Z,96.00
2018-01-27T06:40:04.678Z,96.10
2018-01-27T06:42:32.270Z,95.89
2018-01-27T06:44:59.830Z,96.36
2018-01-27T06:47:27.384Z,96.22
2018-01-27T06:49:54.943Z,95.79
2018-01-27T06:52:22.583Z,95.62
2018-01-27T06:54:50.130Z,95.74
2018-01-27T06:57:17.683Z,95.04
2018-01-27T06:59:45.232Z,95.24
2018-01-27T07:02:12.791Z,95.04
2018-01-27T07:04:40.342Z,95.73
2018-01-27T07:07:07.894Z,95.71
2018-01-27T07:09:35.502Z,95.59
2018-01-27T07:12:03.129Z,95.58
2018-01-27T07:14:31.703Z,96.29
2018-01-27T07:16:59.516Z,95.84
2018-01-27T07:19:27.062Z,96.26
2018-01-27T07:21:54.637Z,95.91
2018-01-27T07:24:22.181Z,95.39
2018-01-27T07:26:49.734Z,95.77
2018-01-27T07:29:17.287Z,95.56
2018-01-27T07:31:44.838Z,95.15
2018-01-27T07:34:12.391Z,95.20
2018-01-27T07:36:39.938Z,95.30
2018-01-27T07:39:07.494Z,95.12
2018-01-27T07:41:35.042Z,94.97
2018-01-27T07:44:02.586Z,95.26
2018-01-27T07:46:30.130Z,95.23
2018-01-27T07:48:57.681Z,95.69
2018-01-27T07:51:25.220Z,95.13
2018-01-27T07:53:52.771Z,94.92
2018-01-27T07:56:20.320Z,95.73
2018-01-27T07:58:47.914Z,94.94
2018-01-27T08:01:15.465Z,94.94
2018-01-27T08:03:43.815Z,95.46
2018-01-27T08:06:12.267Z,95.15
2018-01-27T08:08:40.589Z,94.95
2018-01-27T08:11:08.134Z,95.09
2018-01-27T08:13:35.681Z,95.33
2018-01-27T08:16:03.230Z,95.01
2018-01-27T08:18:31.497Z,94.67
2018-01-27T08:20:59.057Z,94.48
2018-01-27T08:23:26.605Z,94.92
2018-01-27T08:25:54.151Z,94.34
2018-01-27T08:28:21.706Z,94.47
2018-01-27T08:30:49.249Z,94.36
2018-01-27T08:33:16.789Z,93.96
2018-01-27T08:35:44.339Z,93.93
2018-01-27T08:38:11.894Z,94.04
2018-01-27T08:40:39.507Z,93.84
2018-01-27T08:43:07.057Z,94.19
2018-01-27T08:45:35.446Z,93.72
2018-01-27T08:48:03.002Z,94.00
2018-01-27T08:50:30.546Z,93.19
2018-01-27T08:52:58.157Z,92.99
2018-01-27T08:55:25.722Z,93.12
2018-01-27T08:57:53.283Z,93.10
2018-01-27T09:00:21.739Z,93.13
2018-01-27T09:02:49.282Z,92.63
2018-01-27T09:05:16.829Z,93.24
2018-01-27T09:07:44.446Z,92.80
2018-01-27T09:10:12.001Z,92.88
2018-01-27T09:12:39.570Z,91.20
2018-01-27T09:15:07.114Z,88.99
2018-01-27T09:17:34.793Z,89.73
2018-01-27T09:20:02.465Z,89.97
2018-01-27T09:22:30.118Z,90.25
2018-01-27T09:24:57.670Z,90.64
2018-01-27T09:27:25.213Z,88.64
2018-01-27T09:29:52.807Z,89.26
2018-01-27T09:32:20.358Z,89.09
2018-01-27T09:34:48.041Z,87.93
2018-01-27T09:37:15.581Z,88.17
2018-01-27T09:39:43.145Z,87.01
2018-01-27T09:42:10.684Z,86.81
2018-01-27T09:44:38.233Z,86.74
2018-01-27T09:47:05.775Z,86.19
2018-01-27T09:49:33.339Z,87.11
2018-01-27T09:52:00.932Z,87.23
2018-01-27T09:54:28.483Z,86.78
2018-01-27T09:56:56.738Z,85.49
2018-01-27T09:59:24.292Z,84.90
2018-01-27T10:01:51.913Z,85.75
2018-01-27T10:04:19.565Z,86.09
2018-01-27T10:06:47.109Z,85.38
2018-01-27T10:09:14.659Z,85.83
2018-01-27T10:11:42.250Z,84.18
2018-01-27T10:14:09.840Z,82.99
2018-01-27T10:16:37.387Z,83.28
2018-01-27T10:19:04.930Z,84.96
2018-01-27T10:21:32.474Z,86.27
2018-01-27T10:24:00.032Z,84.87
2018-01-27T10:26:27.589Z,83.41
2018-01-27T10:28:55.139Z,84.44
2018-01-27T10:31:22.734Z,84.42
2018-01-27T10:33:50.282Z,83.48
2018-01-27T10:36:17.825Z,82.84
2018-01-27T10:38:45.376Z,84.38
2018-01-27T10:41:12.977Z,84.59
2018-01-27T10:43:40.525Z,81.86
2018-01-27T10:46:08.074Z,80.92
2018-01-27T10:48:35.618Z,78.84
2018-01-27T10:51:03.163Z,79.48
2018-01-27T10:53:30.714Z,76.45
2018-01-27T10:55:58.262Z,78.20
2018-01-27T10:58:25.897Z,77.84
2018-01-27T11:00:53.443Z,76.79
2018-01-27T11:03:21.105Z,76.38
2018-01-27T11:05:48.649Z,73.79
2018-01-27T11:08:16.229Z,74.62
2018-01-27T11:10:43.776Z,72.28
2018-01-27T11:13:11.354Z,72.53
2018-01-27T11:15:38.898Z,73.28
2018-01-27T11:18:06.485Z,75.50
2018-01-27T11:20:34.029Z,75.05
2018-01-27T11:23:01.574Z,76.45
2018-01-27T11:25:29.115Z,75.60
2018-01-27T11:27:57.446Z,76.58
2018-01-27T11:30:25.023Z,78.07
2018-01-27T11:32:52.601Z,77.72
2018-01-27T11:35:20.141Z,76.28
2018-01-27T11:37:47.694Z,75.27
2018-01-27T11:40:15.241Z,76.01
2018-01-27T11:42:42.787Z,77.90
2018-01-27T11:45:10.341Z,77.09
2018-01-27T11:47:37.936Z,77.10
2018-01-27T11:50:05.603Z,78.09
2018-01-27T11:52:33.141Z,76.49
2018-01-27T11:55:00.716Z,79.17
2018-01-27T11:57:29.127Z,77.57
2018-01-27T11:59:56.797Z,76.31
2018-01-27T12:02:24.378Z,76.32
2018-01-27T12:04:51.922Z,75.90
2018-01-27T12:07:20.510Z,76.21
2018-01-27T12:09:48.882Z,75.54
2018-01-27T12:12:16.494Z,74.62
2018-01-27T12:14:44.053Z,75.30
2018-01-27T12:17:11.600Z,75.34
2018-01-27T12:19:40.317Z,77.16
2018-01-27T12:22:07.871Z,75.77
2018-01-27T12:24:35.426Z,74.71
2018-01-27T12:27:02.973Z,74.47
2018-01-27T12:29:30.665Z,73.33
2018-01-27T12:31:58.321Z,74.37
2018-01-27T12:34:25.872Z,73.81
2018-01-27T12:36:53.423Z,75.64
2018-01-27T12:39:20.977Z,75.67
2018-01-27T12:41:48.539Z,75.72
2018-01-27T12:44:16.095Z,75.16
2018-01-27T12:46:43.693Z,77.30
2018-01-27T12:49:11.237Z,78.30
2018-01-27T12:51:38.785Z,77.72
2018-01-27T12:54:06.338Z,76.93
2018-01-27T12:56:33.896Z,75.59
2018-01-27T12:59:01.626Z,75.61
2018-01-27T13:01:29.178Z,74.49
2018-01-27T13:03:56.754Z,73.11
2018-01-27T13:06:24.305Z,73.44
2018-01-27T13:08:51.850Z,75.54
2018-01-27T13:11:19.478Z,73.67
2018-01-27T13:13:47.056Z,73.32
2018-01-27T13:16:14.606Z,76.16
2018-01-27T13:18:42.182Z,74.44
2018-01-27T13:21:09.726Z,75.47
2018-01-27T13:23:37.264Z,74.96
2018-01-27T13:26:04.852Z,74.48
2018-01-27T13:28:32.402Z,78.25
2018-01-27T13:30:59.944Z,80.00
2018-01-27T13:33:27.486Z,80.31
2018-01-27T13:35:55.029Z,80.53
2018-01-27T13:38:22.577Z,76.62
2018-01-27T13:40:51.053Z,75.98
2018-01-27T13:43:18.601Z,75.57
2018-01-27T13:45:46.150Z,76.97
2018-01-27T13:48:13.725Z,75.50
2018-01-27T13:50:41.273Z,77.53
2018-01-27T13:53:08.846Z,76.60
2018-01-27T13:55:36.386Z,77.54
2018-01-27T13:58:03.935Z,79.36
2018-01-27T14:00:31.485Z,80.77
2018-01-27T14:02:59.030Z,80.68
2018-01-27T14:05:26.619Z,84.09
2018-01-27T14:07:54.210Z,81.91
2018-01-27T14:10:22.649Z,79.37
2018-01-27T14:12:50.199Z,82.78
2018-01-27T14:15:17.742Z,80.71
2018-01-27T14:17:45.294Z,79.94
2018-01-27T14:20:13.750Z,82.57
2018-01-27T14:22:41.294Z,79.71
2018-01-27T14:25:08.846Z,77.29
2018-01-27T14:27:36.385Z,77.92
2018-01-27T14:30:03.922Z,78.22
2018-01-27T14:32:31.467Z,82.11
2018-01-27T14:34:59.005Z,76.46
2018-01-27T14:37:26.668Z,80.16
2018-01-27T14:39:54.213Z,81.75
2018-01-27T14:42:21.761Z,81.66
2018-01-27T14:44:49.310Z,79.59
2018-01-27T14:47:16.857Z,78.70
2018-01-27T14:49:44.407Z,82.78
2018-01-27T14:52:12.667Z,83.26
2018-01-27T14:54:40.213Z,82.66
2018-01-27T14:57:07.938Z,85.35
2018-01-27T14:59:35.486Z,83.77
2018-01-27T15:02:03.035Z,83.44
2018-01-27T15:04:31.404Z,82.29
2018-01-27T15:06:58.952Z,85.08
2018-01-27T15:09:26.526Z,85.01
2018-01-27T15:11:54.982Z,83.55
2018-01-27T15:14:22.525Z,81.79
2018-01-27T15:16:50.073Z,82.48
2018-01-27T15:19:17.622Z,85.48
2018-01-27T15:21:45.231Z,84.46
2018-01-27T15:24:12.769Z,83.83
2018-01-27T15:26:40.313Z,84.47
2018-01-27T15:29:07.860Z,87.44
2018-01-27T15:31:35.440Z,88.16
2018-01-27T15:34:02.995Z,88.20
2018-01-27T15:36:30.541Z,87.93
2018-01-27T15:38:58.154Z,86.95
2018-01-27T15:41:25.699Z,87.94
2018-01-27T15:43:54.077Z,86.29
2018-01-27T15:46:22.630Z,86.47
2018-01-27T15:48:50.180Z,86.46
2018-01-27T15:51:17.725Z,87.84
2018-01-27T15:53:46.205Z,88.65
2018-01-27T15:56:13.749Z,89.38
2018-01-27T15:58:42.084Z,89.23
2018-01-27T16:01:09.648Z,89.79
2018-01-27T16:03:38.310Z,89.96
2018-01-27T16:06:06.034Z,90.34
2018-01-27T16:08:33.579Z,90.47
2018-01-27T16:11:01.149Z,91.31
2018-01-27T16:13:28.702Z,91.45
2018-01-27T16:15:56.954Z,90.56
2018-01-27T16:18:24.508Z,91.54
2018-01-27T16:20:52.131Z,91.69
2018-01-27T16:23:19.768Z,92.41
2018-01-27T16:25:47.441Z,92.24
2018-01-27T16:28:15.113Z,91.74
2018-01-27T16:30:42.661Z,91.61
2018-01-27T16:33:10.201Z,91.38
2018-01-27T16:35:37.745Z,92.50
2018-01-27T16:38:05.422Z,92.42
2018-01-27T16:40:33.002Z,91.38
2018-01-27T16:43:00.555Z,91.37
2018-01-27T16:45:28.094Z,90.96
2018-01-27T16:47:55.644Z,91.50
2018-01-27T16:50:23.193Z,91.60
2018-01-27T16:52:50.826Z,92.17
2018-01-27T16:55:18.470Z,91.39
2018-01-27T16:57:46.095Z,92.04
2018-01-27T17:00:13.658Z,92.05
2018-01-27T17:02:41.218Z,91.66
2018-01-27T17:05:08.777Z,92.03
2018-01-27T17:07:36.325Z,91.26
2018-01-27T17:10:03.934Z,90.85
2018-01-27T17:12:31.593Z,90.81
2018-01-27T17:14:59.159Z,90.38
2018-01-27T17:17:26.818Z,89.99
2018-01-27T17:19:55.145Z,90.22
2018-01-27T17:22:22.689Z,90.72
2018-01-27T17:24:50.239Z,90.07
2018-01-27T17:27:17.786Z,88.90
2018-01-27T17:29:45.337Z,88.29
2018-01-27T17:32:12.881Z,89.07
2018-01-27T17:34:41.337Z,89.04
2018-01-27T17:37:08.882Z,89.37
2018-01-27T17:39:37.465Z,89.75
2018-01-27T17:42:05.010Z,89.79
2018-01-27T17:44:32.562Z,89.65
2018-01-27T17:47:00.214Z,89.58
2018-01-27T17:49:27.765Z,89.92
2018-01-27T17:51:55.306Z,89.62
2018-01-27T17:54:22.849Z,90.44
2018-01-27T17:56:50.422Z,89.99
2018-01-27T17:59:17.975Z,89.54
2018-01-27T18:01:45.523Z,89.39
2018-01-27T18:04:13.062Z,89.69
2018-01-27T18:06:40.605Z,89.95
2018-01-27T18:09:08.157Z,89.95
2018-01-27T18:11:35.709Z,90.46
2018-01-27T18:14:03.334Z,90.81
2018-01-27T18:16:30.934Z,91.42
2018-01-27T18:18:58.480Z,92.71
2018-01-27T18:21:26.823Z,91.82
2018-01-27T18:23:54.377Z,91.57
2018-01-27T18:26:21.926Z,92.17
2018-01-27T18:28:49.550Z,92.07
2018-01-27T18:31:17.093Z,92.50
2018-01-27T18:33:44.641Z,92.77
2018-01-27T18:36:12.198Z,93.50
2018-01-27T18:38:39.742Z,93.82
2018-01-27T18:41:07.324Z,93.29
2018-01-27T18:43:34.917Z,92.62
2018-01-27T18:46:02.471Z,92.57
2018-01-27T18:48:30.021Z,93.13
2018-01-27T18:50:57.566Z,93.84
2018-01-27T18:53:25.110Z,94.06
2018-01-27T18:55:53.690Z,93.57
2018-01-27T18:58:21.270Z,93.64
2018-01-27T19:00:48.813Z,94.11
2018-01-27T19:03:17.343Z,94.03
2018-01-27T19:05:44.901Z,93.65
2018-01-27T19:08:12.643Z,92.86
2018-01-27T19:10:40.433Z,92.93
2018-01-27T19:13:07.981Z,92.55
2018-01-27T19:15:35.559Z,92.70
2018-01-27T19:18:03.908Z,93.19
2018-01-27T19:20:32.293Z,93.45
2018-01-27T19:23:00.638Z,93.65
2018-01-27T19:25:29.098Z,94.10
2018-01-27T19:27:56.654Z,94.35
2018-01-27T19:30:24.206Z,94.32
2018-01-27T19:32:51.754Z,95.11
2018-01-27T19:35:19.327Z,95.50
2018-01-27T19:37:46.873Z,95.81
2018-01-27T19:40:14.417Z,95.90
2018-01-27T19:42:41.968Z,95.81
2018-01-27T19:45:09.513Z,95.71
2018-01-27T19:47:37.950Z,95.47
2018-01-27T19:50:05.598Z,95.43
2018-01-27T19:52:33.158Z,95.23
2018-01-27T19:55:00.703Z,95.59
2018-01-27T19:57:28.249Z,95.54
2018-01-27T19:59:55.799Z,95.52
2018-01-27T20:02:23.346Z,96.09
2018-01-27T20:04:50.964Z,95.82
2018-01-27T20:07:18.522Z,95.56
2018-01-27T20:09:46.873Z,95.23
2018-01-27T20:12:14.707Z,95.28
2018-01-27T20:14:42.253Z,95.63
2018-01-27T20:17:09.881Z,95.94
2018-01-27T20:19:38.040Z,95.55
2018-01-27T20:22:05.595Z,95.93
2018-01-27T20:24:33.962Z,96.27
2018-01-27T20:27:01.570Z,96.44
2018-01-27T20:29:29.114Z,96.69
2018-01-27T20:31:56.651Z,96.67
2018-01-27T20:34:24.268Z,96.79
2018-01-27T20:36:51.794Z,96.63
2018-01-27T20:39:19.374Z,96.35
2018-01-27T20:41:47.000Z,96.17
2018-01-27T20:44:14.591Z,96.46
2018-01-27T20:46:42.170Z,96.48
2018-01-27T20:49:10.326Z,96.43
2018-01-27T20:51:37.869Z,96.50
2018-01-27T20:54:05.421Z,96.60
2018-01-27T20:56:32.978Z,96.82
2018-01-27T20:59:00.528Z,96.76
2018-01-27T21:01:28.074Z,96.42
2018-01-27T21:03:55.790Z,96.81
2018-01-27T21:06:23.342Z,96.71
2018-01-27T21:08:50.902Z,96.14
2018-01-27T21:11:18.478Z,96.51
2018-01-27T21:13:46.962Z,96.36
2018-01-27T21:16:15.422Z,96.05
2018-01-27T21:18:43.820Z,96.06
2018-01-27T21:21:11.362Z,96.27
2018-01-27T21:23:38.911Z,96.70
2018-01-27T21:26:06.465Z,96.32
2018-01-27T21:28:34.010Z,96.37
2018-01-27T21:31:01.553Z,96.76
2018-01-27T21:33:29.102Z,96.40
2018-01-27T21:35:58.480Z,96.59
2018-01-27T21:38:26.836Z,96.46
2018-01-27T21:40:54.378Z,96.54
2018-01-27T21:43:21.925Z,96.23
2018-01-27T21:45:49.542Z,96.47
2018-01-27T21:48:17.082Z,96.57
2018-01-27T21:50:44.636Z,96.39
2018-01-27T21:53:12.222Z,96.18
2018-01-27T21:55:39.814Z,96.30
2018-01-27T21:58:07.390Z,95.85
2018-01-27T22:00:34.949Z,96.19
2018-01-27T22:03:02.559Z,95.92
2018-01-27T22:05:30.102Z,95.46
2018-01-27T22:07:57.649Z,95.66
2018-01-27T22:10:25.194Z,96.19
2018-01-27T22:12:52.738Z,96.06
2018-01-27T22:15:20.278Z,96.18
2018-01-27T22:17:47.834Z,96.25
2018-01-27T22:20:15.466Z,95.67
2018-01-27T22:22:43.065Z,95.66
2018-01-27T22:25:10.628Z,95.59
2018-01-27T22:27:38.382Z,95.38
2018-01-27T22:30:06.702Z,95.53
2018-01-27T22:32:34.246Z,95.53
2018-01-27T22:35:01.789Z,95.72
2018-01-27T22:37:29.342Z,95.85
2018-01-27T22:39:56.885Z,95.46
2018-01-27T22:42:24.465Z,95.36
2018-01-27T22:44:52.024Z,95.15
2018-01-27T22:47:19.574Z,95.57
2018-01-27T22:49:47.916Z,95.53
2018-01-27T22:52:16.461Z,95.56
2018-01-27T22:54:44.814Z,95.87
2018-01-27T22:57:12.359Z,94.69
2018-01-27T22:59:40.894Z,94.71
2018-01-27T23:02:09.230Z,95.36
2018-01-27T23:04:37.617Z,94.95
2018-01-27T23:07:05.862Z,94.68
2018-01-27T23:09:34.175Z,94.52
2018-01-27T23:12:01.842Z,94.81
2018-01-27T23:14:29.601Z,94.50
2018-01-27T23:16:57.165Z,94.34
2018-01-27T23:19:24.713Z,93.31
2018-01-27T23:21:52.259Z,93.04
2018-01-27T23:24:19.812Z,92.78
2018-01-27T23:26:48.130Z,92.87
2018-01-27T23:29:16.573Z,91.76
2018-01-27T23:31:44.889Z,91.21
2018-01-27T23:34:13.232Z,91.53
2018-01-27T23:36:41.648Z,90.92
2018-01-27T23:39:10.109Z,90.61
2018-01-27T23:41:38.710Z,89.88
2018-01-27T23:44:07.165Z,90.20
2018-01-27T23:46:35.410Z,90.03
2018-01-27T23:49:03.725Z,89.73
2018-01-27T23:51:32.098Z,89.70
2018-01-27T23:53:59.641Z,88.96
2018-01-27T23:56:28.121Z,89.49
2018-01-27T23:58:56.610Z,89.39
